sensor_id;sensor_type;location;lat;lon;timestamp;P1;durP1;ratioP1;P2;durP2;ratioP2
57810;SDS011;43640;47.550;7.590;2022-09-14T00:01:40;4.78;;;3.53;;
57810;SDS011;43640;47.550;7.590;2022-09-14T00:03:43;5.55;;;3.50;;
57810;SDS011;43640;47.550;7.590;2022-09-14T00:05:44;4.78;;;3.08;;
57810;SDS011;43640;47.550;7.590;2022-09-14T00:07:46;4.78;;;3.05;;
57810;SDS011;43640;47.550;7.590;2022-09-14T00:09:47;4.57;;;3.13;;
57810;SDS011;43640;47.550;7.590;2022-09-14T00:11:50;3.33;;;2.83;;
57810;SDS011;43640;47.550;7.590;2022-09-14T00:13:52;5.45;;;3.08;;
57810;SDS011;43640;47.550;7.590;2022-09-14T00:15:53;9.55;;;4.63;;
57810;SDS011;43640;47.550;7.590;2022-09-14T00:17:55;4.93;;;3.30;;
57810;SDS011;43640;47.550;7.590;2022-09-14T00:19:56;6.80;;;3.30;;
57810;SDS011;43640;47.550;7.590;2022-09-14T00:21:57;4.10;;;3.33;;
57810;SDS011;43640;47.550;7.590;2022-09-14T00:23:59;4.00;;;3.58;;
57810;SDS011;43640;47.550;7.590;2022-09-14T00:26:07;5.57;;;3.50;;
57810;SDS011;43640;47.550;7.590;2022-09-14T00:28:09;3.70;;;3.17;;
57810;SDS011;43640;47.550;7.590;2022-09-14T00:30:11;5.30;;;3.58;;
57810;SDS011;43640;47.550;7.590;2022-09-14T00:32:13;5.00;;;3.42;;
57810;SDS011;43640;47.550;7.590;2022-09-14T00:34:15;5.30;;;3.33;;
57810;SDS011;43640;47.550;7.590;2022-09-14T00:36:21;5.47;;;3.50;;
57810;SDS011;43640;47.550;7.590;2022-09-14T00:38:24;5.75;;;3.40;;
57810;SDS011;43640;47.550;7.590;2022-09-14T00:40:26;5.70;;;3.67;;
57810;SDS011;43640;47.550;7.590;2022-09-14T00:42:27;5.85;;;3.38;;
57810;SDS011;43640;47.550;7.590;2022-09-14T00:46:31;6.32;;;3.80;;
57810;SDS011;43640;47.550;7.590;2022-09-14T00:48:32;6.63;;;3.47;;
57810;SDS011;43640;47.550;7.590;2022-09-14T00:50:34;8.07;;;3.97;;
57810;SDS011;43640;47.550;7.590;2022-09-14T00:52:36;5.07;;;3.40;;
57810;SDS011;43640;47.550;7.590;2022-09-14T00:54:39;6.57;;;4.22;;
57810;SDS011;43640;47.550;7.590;2022-09-14T00:56:41;6.85;;;3.90;;
57810;SDS011;43640;47.550;7.590;2022-09-14T00:58:43;6.55;;;3.75;;
57810;SDS011;43640;47.550;7.590;2022-09-14T01:00:45;7.97;;;3.70;;
57810;SDS011;43640;47.550;7.590;2022-09-14T01:02:46;5.78;;;3.50;;
57810;SDS011;43640;47.550;7.590;2022-09-14T01:04:48;5.57;;;3.60;;
57810;SDS011;43640;47.550;7.590;2022-09-14T01:09:13;7.18;;;3.83;;
57810;SDS011;43640;47.550;7.590;2022-09-14T01:11:19;5.63;;;3.50;;
57810;SDS011;43640;47.550;7.590;2022-09-14T01:20:18;10.70;;;4.10;;
57810;SDS011;43640;47.550;7.590;2022-09-14T01:22:22;7.55;;;4.00;;
57810;SDS011;43640;47.550;7.590;2022-09-14T01:24:27;5.47;;;3.85;;
57810;SDS011;43640;47.550;7.590;2022-09-14T01:29:01;6.13;;;3.88;;
57810;SDS011;43640;47.550;7.590;2022-09-14T01:31:14;7.15;;;4.10;;
57810;SDS011;43640;47.550;7.590;2022-09-14T01:33:21;5.15;;;3.97;;
57810;SDS011;43640;47.550;7.590;2022-09-14T01:37:30;5.65;;;3.60;;
57810;SDS011;43640;47.550;7.590;2022-09-14T01:39:33;6.00;;;3.50;;
57810;SDS011;43640;47.550;7.590;2022-09-14T01:41:36;4.97;;;3.65;;
57810;SDS011;43640;47.550;7.590;2022-09-14T01:43:39;5.43;;;3.75;;
57810;SDS011;43640;47.550;7.590;2022-09-14T01:45:43;8.18;;;3.72;;
57810;SDS011;43640;47.550;7.590;2022-09-14T01:47:57;7.22;;;3.28;;
57810;SDS011;43640;47.550;7.590;2022-09-14T01:50:02;5.30;;;3.83;;
57810;SDS011;43640;47.550;7.590;2022-09-14T01:52:13;5.32;;;4.07;;
57810;SDS011;43640;47.550;7.590;2022-09-14T01:54:25;5.57;;;3.80;;
57810;SDS011;43640;47.550;7.590;2022-09-14T01:56:48;5.25;;;3.70;;
57810;SDS011;43640;47.550;7.590;2022-09-14T01:59:26;5.38;;;3.60;;
57810;SDS011;43640;47.550;7.590;2022-09-14T02:01:21;4.80;;;3.55;;
57810;SDS011;43640;47.550;7.590;2022-09-14T02:03:26;5.32;;;3.60;;
57810;SDS011;43640;47.550;7.590;2022-09-14T02:07:33;4.60;;;3.70;;
57810;SDS011;43640;47.550;7.590;2022-09-14T02:09:35;6.57;;;3.92;;
57810;SDS011;43640;47.550;7.590;2022-09-14T02:11:36;4.68;;;3.70;;
57810;SDS011;43640;47.550;7.590;2022-09-14T02:13:38;5.38;;;3.65;;
57810;SDS011;43640;47.550;7.590;2022-09-14T02:15:40;6.25;;;3.78;;
57810;SDS011;43640;47.550;7.590;2022-09-14T02:17:41;9.32;;;3.88;;
57810;SDS011;43640;47.550;7.590;2022-09-14T02:19:45;6.22;;;4.75;;
57810;SDS011;43640;47.550;7.590;2022-09-14T02:21:47;8.27;;;3.72;;
57810;SDS011;43640;47.550;7.590;2022-09-14T02:23:49;6.18;;;4.50;;
57810;SDS011;43640;47.550;7.590;2022-09-14T02:25:50;7.45;;;4.18;;
57810;SDS011;43640;47.550;7.590;2022-09-14T02:27:51;6.43;;;3.83;;
57810;SDS011;43640;47.550;7.590;2022-09-14T02:29:53;6.03;;;3.90;;
57810;SDS011;43640;47.550;7.590;2022-09-14T02:32:09;5.60;;;4.07;;
57810;SDS011;43640;47.550;7.590;2022-09-14T02:34:16;6.97;;;4.13;;
57810;SDS011;43640;47.550;7.590;2022-09-14T02:36:22;6.93;;;4.40;;
57810;SDS011;43640;47.550;7.590;2022-09-14T02:38:28;7.32;;;4.68;;
57810;SDS011;43640;47.550;7.590;2022-09-14T02:40:38;5.88;;;3.97;;
57810;SDS011;43640;47.550;7.590;2022-09-14T02:47:05;4.20;;;3.70;;
57810;SDS011;43640;47.550;7.590;2022-09-14T02:54:31;6.47;;;4.10;;
57810;SDS011;43640;47.550;7.590;2022-09-14T02:56:04;7.30;;;3.83;;
57810;SDS011;43640;47.550;7.590;2022-09-14T02:58:08;8.32;;;3.90;;
57810;SDS011;43640;47.550;7.590;2022-09-14T03:00:10;9.10;;;4.57;;
57810;SDS011;43640;47.550;7.590;2022-09-14T03:02:12;8.60;;;4.85;;
57810;SDS011;43640;47.550;7.590;2022-09-14T03:04:14;6.65;;;4.53;;
57810;SDS011;43640;47.550;7.590;2022-09-14T03:06:15;7.72;;;4.38;;
57810;SDS011;43640;47.550;7.590;2022-09-14T03:08:17;7.75;;;5.38;;
57810;SDS011;43640;47.550;7.590;2022-09-14T03:10:18;9.75;;;6.35;;
57810;SDS011;43640;47.550;7.590;2022-09-14T03:12:19;7.88;;;6.03;;
57810;SDS011;43640;47.550;7.590;2022-09-14T03:14:21;5.65;;;5.05;;
57810;SDS011;43640;47.550;7.590;2022-09-14T03:16:22;9.98;;;5.80;;
57810;SDS011;43640;47.550;7.590;2022-09-14T03:18:23;8.43;;;4.57;;
57810;SDS011;43640;47.550;7.590;2022-09-14T03:20:27;6.22;;;5.10;;
57810;SDS011;43640;47.550;7.590;2022-09-14T03:22:29;7.10;;;5.32;;
57810;SDS011;43640;47.550;7.590;2022-09-14T03:24:30;5.85;;;5.35;;
57810;SDS011;43640;47.550;7.590;2022-09-14T03:26:32;9.27;;;5.43;;
57810;SDS011;43640;47.550;7.590;2022-09-14T03:28:36;8.02;;;6.03;;
57810;SDS011;43640;47.550;7.590;2022-09-14T03:30:38;6.32;;;5.43;;
57810;SDS011;43640;47.550;7.590;2022-09-14T03:32:39;8.02;;;5.80;;
57810;SDS011;43640;47.550;7.590;2022-09-14T03:34:40;8.52;;;5.28;;
57810;SDS011;43640;47.550;7.590;2022-09-14T03:36:42;6.25;;;5.15;;
57810;SDS011;43640;47.550;7.590;2022-09-14T03:38:44;7.88;;;5.57;;
57810;SDS011;43640;47.550;7.590;2022-09-14T03:40:45;10.65;;;5.30;;
57810;SDS011;43640;47.550;7.590;2022-09-14T03:42:48;7.63;;;5.40;;
57810;SDS011;43640;47.550;7.590;2022-09-14T03:44:49;6.03;;;4.55;;
57810;SDS011;43640;47.550;7.590;2022-09-14T03:46:50;7.00;;;4.88;;
57810;SDS011;43640;47.550;7.590;2022-09-14T03:48:52;8.82;;;4.68;;
57810;SDS011;43640;47.550;7.590;2022-09-14T03:50:55;6.03;;;4.45;;
57810;SDS011;43640;47.550;7.590;2022-09-14T03:53:00;5.25;;;4.45;;
57810;SDS011;43640;47.550;7.590;2022-09-14T03:55:01;6.00;;;4.85;;
57810;SDS011;43640;47.550;7.590;2022-09-14T03:57:03;8.20;;;4.40;;
57810;SDS011;43640;47.550;7.590;2022-09-14T03:59:07;5.07;;;4.05;;
57810;SDS011;43640;47.550;7.590;2022-09-14T04:01:09;7.97;;;4.32;;
57810;SDS011;43640;47.550;7.590;2022-09-14T04:03:11;6.13;;;4.68;;
57810;SDS011;43640;47.550;7.590;2022-09-14T04:05:13;7.55;;;4.70;;
57810;SDS011;43640;47.550;7.590;2022-09-14T04:07:16;7.28;;;4.97;;
57810;SDS011;43640;47.550;7.590;2022-09-14T04:09:18;7.10;;;4.70;;
57810;SDS011;43640;47.550;7.590;2022-09-14T04:11:21;7.07;;;4.60;;
57810;SDS011;43640;47.550;7.590;2022-09-14T04:13:22;11.02;;;5.57;;
57810;SDS011;43640;47.550;7.590;2022-09-14T04:15:24;6.95;;;4.88;;
57810;SDS011;43640;47.550;7.590;2022-09-14T04:17:25;7.20;;;4.55;;
57810;SDS011;43640;47.550;7.590;2022-09-14T04:19:27;7.78;;;4.75;;
57810;SDS011;43640;47.550;7.590;2022-09-14T04:21:29;6.55;;;4.90;;
57810;SDS011;43640;47.550;7.590;2022-09-14T04:23:30;6.13;;;4.63;;
57810;SDS011;43640;47.550;7.590;2022-09-14T04:25:32;7.85;;;5.13;;
57810;SDS011;43640;47.550;7.590;2022-09-14T04:27:33;7.78;;;5.10;;
57810;SDS011;43640;47.550;7.590;2022-09-14T04:29:34;6.95;;;5.10;;
57810;SDS011;43640;47.550;7.590;2022-09-14T04:31:36;5.65;;;4.95;;
57810;SDS011;43640;47.550;7.590;2022-09-14T04:33:38;8.02;;;5.55;;
57810;SDS011;43640;47.550;7.590;2022-09-14T04:35:39;7.97;;;5.13;;
57810;SDS011;43640;47.550;7.590;2022-09-14T04:37:41;7.13;;;4.80;;
57810;SDS011;43640;47.550;7.590;2022-09-14T04:39:42;7.03;;;4.95;;
57810;SDS011;43640;47.550;7.590;2022-09-14T04:41:44;7.32;;;5.35;;
57810;SDS011;43640;47.550;7.590;2022-09-14T04:43:45;5.75;;;4.60;;
57810;SDS011;43640;47.550;7.590;2022-09-14T04:45:47;6.50;;;4.80;;
57810;SDS011;43640;47.550;7.590;2022-09-14T04:47:48;10.13;;;4.68;;
57810;SDS011;43640;47.550;7.590;2022-09-14T04:49:50;6.88;;;4.82;;
57810;SDS011;43640;47.550;7.590;2022-09-14T04:51:52;5.53;;;3.90;;
57810;SDS011;43640;47.550;7.590;2022-09-14T04:53:54;5.85;;;4.20;;
57810;SDS011;43640;47.550;7.590;2022-09-14T04:56:03;7.43;;;4.20;;
57810;SDS011;43640;47.550;7.590;2022-09-14T04:58:05;6.38;;;4.45;;
57810;SDS011;43640;47.550;7.590;2022-09-14T05:00:07;6.63;;;5.05;;
57810;SDS011;43640;47.550;7.590;2022-09-14T05:02:08;7.43;;;4.50;;
57810;SDS011;43640;47.550;7.590;2022-09-14T05:04:10;8.70;;;4.80;;
57810;SDS011;43640;47.550;7.590;2022-09-14T05:06:21;6.22;;;4.70;;
57810;SDS011;43640;47.550;7.590;2022-09-14T05:08:23;8.43;;;5.13;;
57810;SDS011;43640;47.550;7.590;2022-09-14T05:10:24;9.60;;;5.28;;
57810;SDS011;43640;47.550;7.590;2022-09-14T05:12:25;10.23;;;5.00;;
57810;SDS011;43640;47.550;7.590;2022-09-14T05:14:27;10.63;;;5.40;;
57810;SDS011;43640;47.550;7.590;2022-09-14T05:16:29;5.30;;;4.72;;
57810;SDS011;43640;47.550;7.590;2022-09-14T05:18:31;9.75;;;5.32;;
57810;SDS011;43640;47.550;7.590;2022-09-14T05:20:33;10.00;;;4.97;;
57810;SDS011;43640;47.550;7.590;2022-09-14T05:22:34;9.25;;;5.43;;
57810;SDS011;43640;47.550;7.590;2022-09-14T05:24:35;9.25;;;6.00;;
57810;SDS011;43640;47.550;7.590;2022-09-14T05:26:37;8.60;;;5.75;;
57810;SDS011;43640;47.550;7.590;2022-09-14T05:28:38;8.02;;;5.63;;
57810;SDS011;43640;47.550;7.590;2022-09-14T05:30:39;10.52;;;5.63;;
57810;SDS011;43640;47.550;7.590;2022-09-14T05:32:41;8.25;;;5.15;;
57810;SDS011;43640;47.550;7.590;2022-09-14T05:34:42;8.43;;;5.05;;
57810;SDS011;43640;47.550;7.590;2022-09-14T05:36:43;6.47;;;5.07;;
57810;SDS011;43640;47.550;7.590;2022-09-14T05:38:45;8.55;;;5.07;;
57810;SDS011;43640;47.550;7.590;2022-09-14T05:40:46;10.73;;;5.38;;
57810;SDS011;43640;47.550;7.590;2022-09-14T05:42:47;8.18;;;4.93;;
57810;SDS011;43640;47.550;7.590;2022-09-14T05:44:49;7.28;;;4.65;;
57810;SDS011;43640;47.550;7.590;2022-09-14T05:46:50;12.25;;;5.40;;
57810;SDS011;43640;47.550;7.590;2022-09-14T05:48:52;9.82;;;5.35;;
57810;SDS011;43640;47.550;7.590;2022-09-14T05:50:56;6.40;;;3.75;;
57810;SDS011;43640;47.550;7.590;2022-09-14T05:53:00;10.95;;;5.28;;
57810;SDS011;43640;47.550;7.590;2022-09-14T05:55:01;7.50;;;5.18;;
57810;SDS011;43640;47.550;7.590;2022-09-14T05:57:03;11.50;;;5.30;;
57810;SDS011;43640;47.550;7.590;2022-09-14T05:59:04;8.48;;;5.22;;
57810;SDS011;43640;47.550;7.590;2022-09-14T06:01:13;9.13;;;4.75;;
57810;SDS011;43640;47.550;7.590;2022-09-14T06:03:15;13.55;;;5.32;;
57810;SDS011;43640;47.550;7.590;2022-09-14T06:05:16;11.95;;;4.93;;
57810;SDS011;43640;47.550;7.590;2022-09-14T06:07:18;8.80;;;4.90;;
57810;SDS011;43640;47.550;7.590;2022-09-14T06:09:19;8.05;;;5.20;;
57810;SDS011;43640;47.550;7.590;2022-09-14T06:11:25;8.15;;;4.88;;
57810;SDS011;43640;47.550;7.590;2022-09-14T06:13:26;9.10;;;4.68;;
57810;SDS011;43640;47.550;7.590;2022-09-14T06:15:28;7.38;;;4.40;;
57810;SDS011;43640;47.550;7.590;2022-09-14T06:17:29;9.93;;;4.75;;
57810;SDS011;43640;47.550;7.590;2022-09-14T06:19:31;6.32;;;4.22;;
57810;SDS011;43640;47.550;7.590;2022-09-14T06:21:33;8.50;;;5.15;;
57810;SDS011;43640;47.550;7.590;2022-09-14T06:23:35;10.10;;;5.15;;
57810;SDS011;43640;47.550;7.590;2022-09-14T06:25:36;8.10;;;4.65;;
57810;SDS011;43640;47.550;7.590;2022-09-14T06:27:37;8.85;;;4.22;;
57810;SDS011;43640;47.550;7.590;2022-09-14T06:29:39;9.50;;;4.53;;
57810;SDS011;43640;47.550;7.590;2022-09-14T06:31:40;7.32;;;3.90;;
57810;SDS011;43640;47.550;7.590;2022-09-14T06:33:42;6.28;;;3.88;;
57810;SDS011;43640;47.550;7.590;2022-09-14T06:35:56;7.63;;;5.25;;
57810;SDS011;43640;47.550;7.590;2022-09-14T06:37:58;10.45;;;6.45;;
57810;SDS011;43640;47.550;7.590;2022-09-14T06:39:59;9.73;;;4.68;;
57810;SDS011;43640;47.550;7.590;2022-09-14T06:42:01;7.07;;;4.30;;
57810;SDS011;43640;47.550;7.590;2022-09-14T06:44:02;8.68;;;4.55;;
57810;SDS011;43640;47.550;7.590;2022-09-14T06:46:05;9.65;;;5.72;;
57810;SDS011;43640;47.550;7.590;2022-09-14T06:48:07;8.50;;;5.35;;
57810;SDS011;43640;47.550;7.590;2022-09-14T06:50:08;6.18;;;3.90;;
57810;SDS011;43640;47.550;7.590;2022-09-14T06:52:09;9.15;;;5.10;;
57810;SDS011;43640;47.550;7.590;2022-09-14T06:54:11;6.45;;;4.28;;
57810;SDS011;43640;47.550;7.590;2022-09-14T06:56:13;13.55;;;6.35;;
57810;SDS011;43640;47.550;7.590;2022-09-14T06:58:14;6.95;;;4.80;;
57810;SDS011;43640;47.550;7.590;2022-09-14T07:00:16;8.95;;;4.05;;
57810;SDS011;43640;47.550;7.590;2022-09-14T07:02:17;10.35;;;4.75;;
57810;SDS011;43640;47.550;7.590;2022-09-14T07:04:19;6.60;;;4.30;;
57810;SDS011;43640;47.550;7.590;2022-09-14T07:06:24;5.22;;;3.90;;
57810;SDS011;43640;47.550;7.590;2022-09-14T07:08:28;5.47;;;4.05;;
57810;SDS011;43640;47.550;7.590;2022-09-14T07:10:30;8.60;;;4.25;;
57810;SDS011;43640;47.550;7.590;2022-09-14T07:12:31;5.60;;;3.70;;
57810;SDS011;43640;47.550;7.590;2022-09-14T07:14:32;5.20;;;3.40;;
57810;SDS011;43640;47.550;7.590;2022-09-14T07:16:37;9.07;;;6.22;;
57810;SDS011;43640;47.550;7.590;2022-09-14T07:18:38;9.20;;;5.63;;
57810;SDS011;43640;47.550;7.590;2022-09-14T07:20:40;4.93;;;3.75;;
57810;SDS011;43640;47.550;7.590;2022-09-14T07:22:41;6.60;;;3.83;;
57810;SDS011;43640;47.550;7.590;2022-09-14T07:24:43;6.57;;;3.95;;
57810;SDS011;43640;47.550;7.590;2022-09-14T07:26:44;5.50;;;3.30;;
57810;SDS011;43640;47.550;7.590;2022-09-14T07:28:48;6.53;;;3.20;;
57810;SDS011;43640;47.550;7.590;2022-09-14T07:30:50;4.65;;;3.20;;
57810;SDS011;43640;47.550;7.590;2022-09-14T07:32:55;4.97;;;3.67;;
57810;SDS011;43640;47.550;7.590;2022-09-14T07:34:57;6.15;;;3.75;;
57810;SDS011;43640;47.550;7.590;2022-09-14T07:36:58;5.95;;;3.58;;
57810;SDS011;43640;47.550;7.590;2022-09-14T07:38:59;7.57;;;3.55;;
57810;SDS011;43640;47.550;7.590;2022-09-14T07:41:01;6.22;;;3.63;;
57810;SDS011;43640;47.550;7.590;2022-09-14T07:43:02;7.45;;;3.60;;
57810;SDS011;43640;47.550;7.590;2022-09-14T07:45:04;7.03;;;3.67;;
57810;SDS011;43640;47.550;7.590;2022-09-14T07:47:05;8.88;;;4.18;;
57810;SDS011;43640;47.550;7.590;2022-09-14T07:49:07;7.22;;;4.60;;
57810;SDS011;43640;47.550;7.590;2022-09-14T07:51:10;7.82;;;5.50;;
57810;SDS011;43640;47.550;7.590;2022-09-14T07:53:11;8.95;;;5.53;;
57810;SDS011;43640;47.550;7.590;2022-09-14T07:55:12;7.22;;;4.43;;
57810;SDS011;43640;47.550;7.590;2022-09-14T07:57:14;8.18;;;5.47;;
57810;SDS011;43640;47.550;7.590;2022-09-14T07:59:15;10.18;;;4.72;;
57810;SDS011;43640;47.550;7.590;2022-09-14T08:01:36;8.43;;;4.35;;
57810;SDS011;43640;47.550;7.590;2022-09-14T08:03:39;6.40;;;4.60;;
57810;SDS011;43640;47.550;7.590;2022-09-14T08:05:40;5.72;;;3.78;;
57810;SDS011;43640;47.550;7.590;2022-09-14T08:07:42;8.45;;;4.32;;
57810;SDS011;43640;47.550;7.590;2022-09-14T08:09:43;10.80;;;5.00;;
57810;SDS011;43640;47.550;7.590;2022-09-14T08:11:45;12.15;;;5.65;;
57810;SDS011;43640;47.550;7.590;2022-09-14T08:13:50;7.18;;;3.97;;
57810;SDS011;43640;47.550;7.590;2022-09-14T08:15:52;5.80;;;3.70;;
57810;SDS011;43640;47.550;7.590;2022-09-14T08:17:53;4.50;;;3.63;;
57810;SDS011;43640;47.550;7.590;2022-09-14T08:19:55;10.88;;;4.30;;
57810;SDS011;43640;47.550;7.590;2022-09-14T08:21:56;11.07;;;4.28;;
57810;SDS011;43640;47.550;7.590;2022-09-14T08:23:58;6.43;;;3.70;;
57810;SDS011;43640;47.550;7.590;2022-09-14T08:26:03;8.02;;;3.88;;
57810;SDS011;43640;47.550;7.590;2022-09-14T08:28:04;9.05;;;4.55;;
57810;SDS011;43640;47.550;7.590;2022-09-14T08:30:06;7.28;;;4.22;;
57810;SDS011;43640;47.550;7.590;2022-09-14T08:32:09;6.85;;;3.90;;
57810;SDS011;43640;47.550;7.590;2022-09-14T08:34:11;7.80;;;4.45;;
57810;SDS011;43640;47.550;7.590;2022-09-14T08:36:13;9.07;;;5.15;;
57810;SDS011;43640;47.550;7.590;2022-09-14T08:38:14;5.80;;;4.13;;
57810;SDS011;43640;47.550;7.590;2022-09-14T08:40:16;6.97;;;3.95;;
57810;SDS011;43640;47.550;7.590;2022-09-14T08:42:18;6.35;;;3.60;;
57810;SDS011;43640;47.550;7.590;2022-09-14T08:44:23;9.05;;;4.20;;
57810;SDS011;43640;47.550;7.590;2022-09-14T08:46:32;7.03;;;3.92;;
57810;SDS011;43640;47.550;7.590;2022-09-14T08:48:35;6.70;;;3.80;;
57810;SDS011;43640;47.550;7.590;2022-09-14T08:50:37;8.48;;;4.40;;
57810;SDS011;43640;47.550;7.590;2022-09-14T08:52:40;10.45;;;5.10;;
57810;SDS011;43640;47.550;7.590;2022-09-14T08:54:45;16.23;;;6.10;;
57810;SDS011;43640;47.550;7.590;2022-09-14T08:56:53;10.10;;;5.15;;
57810;SDS011;43640;47.550;7.590;2022-09-14T09:01:25;8.93;;;4.63;;
57810;SDS011;43640;47.550;7.590;2022-09-14T09:03:38;9.52;;;4.43;;
57810;SDS011;43640;47.550;7.590;2022-09-14T09:05:44;9.00;;;4.38;;
57810;SDS011;43640;47.550;7.590;2022-09-14T09:08:01;12.10;;;4.97;;
57810;SDS011;43640;47.550;7.590;2022-09-14T09:10:04;8.07;;;4.72;;
57810;SDS011;43640;47.550;7.590;2022-09-14T09:12:07;11.63;;;5.03;;
57810;SDS011;43640;47.550;7.590;2022-09-14T09:16:20;10.52;;;4.47;;
57810;SDS011;43640;47.550;7.590;2022-09-14T09:18:37;8.27;;;4.65;;
57810;SDS011;43640;47.550;7.590;2022-09-14T09:20:41;8.48;;;4.53;;
57810;SDS011;43640;47.550;7.590;2022-09-14T09:22:45;12.32;;;5.88;;
57810;SDS011;43640;47.550;7.590;2022-09-14T09:24:50;8.07;;;4.30;;
57810;SDS011;43640;47.550;7.590;2022-09-14T09:26:52;11.27;;;6.55;;
57810;SDS011;43640;47.550;7.590;2022-09-14T09:28:55;11.05;;;5.95;;
57810;SDS011;43640;47.550;7.590;2022-09-14T09:30:57;9.60;;;5.47;;
57810;SDS011;43640;47.550;7.590;2022-09-14T09:32:59;6.85;;;4.60;;
57810;SDS011;43640;47.550;7.590;2022-09-14T09:35:01;11.50;;;5.45;;
57810;SDS011;43640;47.550;7.590;2022-09-14T09:37:04;8.10;;;4.25;;
57810;SDS011;43640;47.550;7.590;2022-09-14T09:39:06;7.72;;;4.03;;
57810;SDS011;43640;47.550;7.590;2022-09-14T09:41:11;7.03;;;4.05;;
57810;SDS011;43640;47.550;7.590;2022-09-14T09:43:14;8.95;;;4.63;;
57810;SDS011;43640;47.550;7.590;2022-09-14T09:45:45;5.85;;;3.92;;
57810;SDS011;43640;47.550;7.590;2022-09-14T09:47:46;10.18;;;4.20;;
57810;SDS011;43640;47.550;7.590;2022-09-14T09:49:48;7.20;;;3.65;;
57810;SDS011;43640;47.550;7.590;2022-09-14T09:52:18;9.13;;;4.32;;
57810;SDS011;43640;47.550;7.590;2022-09-14T09:54:25;7.55;;;3.80;;
57810;SDS011;43640;47.550;7.590;2022-09-14T09:56:29;6.18;;;3.67;;
57810;SDS011;43640;47.550;7.590;2022-09-14T09:58:35;9.68;;;4.75;;
57810;SDS011;43640;47.550;7.590;2022-09-14T10:00:37;7.60;;;3.90;;
57810;SDS011;43640;47.550;7.590;2022-09-14T10:02:39;4.65;;;3.30;;
57810;SDS011;43640;47.550;7.590;2022-09-14T10:06:57;6.82;;;3.88;;
57810;SDS011;43640;47.550;7.590;2022-09-14T10:08:59;7.82;;;4.82;;
57810;SDS011;43640;47.550;7.590;2022-09-14T10:11:01;9.70;;;4.68;;
57810;SDS011;43640;47.550;7.590;2022-09-14T10:13:03;7.90;;;4.30;;
57810;SDS011;43640;47.550;7.590;2022-09-14T10:15:13;8.57;;;4.70;;
57810;SDS011;43640;47.550;7.590;2022-09-14T10:17:17;9.93;;;5.13;;
57810;SDS011;43640;47.550;7.590;2022-09-14T10:19:20;6.38;;;4.43;;
57810;SDS011;43640;47.550;7.590;2022-09-14T10:21:23;7.28;;;3.95;;
57810;SDS011;43640;47.550;7.590;2022-09-14T10:23:25;5.50;;;3.55;;
57810;SDS011;43640;47.550;7.590;2022-09-14T10:25:27;9.55;;;4.10;;
57810;SDS011;43640;47.550;7.590;2022-09-14T10:29:38;5.25;;;3.90;;
57810;SDS011;43640;47.550;7.590;2022-09-14T10:31:41;9.02;;;4.05;;
57810;SDS011;43640;47.550;7.590;2022-09-14T10:33:44;5.65;;;3.20;;
57810;SDS011;43640;47.550;7.590;2022-09-14T10:38:30;5.07;;;3.60;;
57810;SDS011;43640;47.550;7.590;2022-09-14T10:40:36;6.53;;;3.90;;
57810;SDS011;43640;47.550;7.590;2022-09-14T10:42:39;6.22;;;3.88;;
57810;SDS011;43640;47.550;7.590;2022-09-14T10:44:53;7.63;;;3.70;;
57810;SDS011;43640;47.550;7.590;2022-09-14T10:51:27;6.50;;;2.90;;
57810;SDS011;43640;47.550;7.590;2022-09-14T10:53:35;6.43;;;2.92;;
57810;SDS011;43640;47.550;7.590;2022-09-14T11:02:00;9.68;;;3.45;;
57810;SDS011;43640;47.550;7.590;2022-09-14T11:08:43;5.30;;;3.03;;
57810;SDS011;43640;47.550;7.590;2022-09-14T11:23:48;7.82;;;2.95;;
57810;SDS011;43640;47.550;7.590;2022-09-14T11:28:22;6.75;;;3.40;;
57810;SDS011;43640;47.550;7.590;2022-09-14T11:30:45;4.85;;;2.97;;
57810;SDS011;43640;47.550;7.590;2022-09-14T11:37:09;7.70;;;3.17;;
57810;SDS011;43640;47.550;7.590;2022-09-14T11:39:14;4.75;;;2.78;;
57810;SDS011;43640;47.550;7.590;2022-09-14T11:43:23;8.57;;;3.15;;
57810;SDS011;43640;47.550;7.590;2022-09-14T11:45:30;6.68;;;3.00;;
57810;SDS011;43640;47.550;7.590;2022-09-14T11:47:36;7.00;;;2.92;;
57810;SDS011;43640;47.550;7.590;2022-09-14T11:50:00;5.30;;;2.60;;
57810;SDS011;43640;47.550;7.590;2022-09-14T11:52:03;4.68;;;2.78;;
57810;SDS011;43640;47.550;7.590;2022-09-14T11:54:09;4.05;;;2.75;;
57810;SDS011;43640;47.550;7.590;2022-09-14T11:56:21;9.07;;;2.60;;
57810;SDS011;43640;47.550;7.590;2022-09-14T11:58:26;5.78;;;2.33;;
57810;SDS011;43640;47.550;7.590;2022-09-14T12:07:17;5.95;;;2.10;;
57810;SDS011;43640;47.550;7.590;2022-09-14T12:09:40;4.50;;;2.35;;
57810;SDS011;43640;47.550;7.590;2022-09-14T12:11:44;5.88;;;2.65;;
57810;SDS011;43640;47.550;7.590;2022-09-14T12:13:46;5.57;;;2.45;;
57810;SDS011;43640;47.550;7.590;2022-09-14T12:15:47;5.38;;;2.70;;
57810;SDS011;43640;47.550;7.590;2022-09-14T12:22:30;5.93;;;2.20;;
57810;SDS011;43640;47.550;7.590;2022-09-14T12:24:32;3.78;;;2.00;;
57810;SDS011;43640;47.550;7.590;2022-09-14T12:26:34;5.10;;;2.80;;
57810;SDS011;43640;47.550;7.590;2022-09-14T12:32:41;4.40;;;2.47;;
57810;SDS011;43640;47.550;7.590;2022-09-14T12:34:43;3.67;;;2.30;;
57810;SDS011;43640;47.550;7.590;2022-09-14T12:40:50;4.63;;;2.28;;
57810;SDS011;43640;47.550;7.590;2022-09-14T12:42:51;4.28;;;2.13;;
57810;SDS011;43640;47.550;7.590;2022-09-14T12:44:52;6.95;;;2.10;;
57810;SDS011;43640;47.550;7.590;2022-09-14T12:46:54;5.72;;;2.95;;
57810;SDS011;43640;47.550;7.590;2022-09-14T12:48:58;4.20;;;2.08;;
57810;SDS011;43640;47.550;7.590;2022-09-14T12:51:00;4.47;;;2.45;;
57810;SDS011;43640;47.550;7.590;2022-09-14T12:53:23;6.10;;;3.08;;
57810;SDS011;43640;47.550;7.590;2022-09-14T12:55:30;8.05;;;2.90;;
57810;SDS011;43640;47.550;7.590;2022-09-14T12:58:21;6.97;;;4.72;;
57810;SDS011;43640;47.550;7.590;2022-09-14T13:00:00;4.88;;;2.80;;
57810;SDS011;43640;47.550;7.590;2022-09-14T13:04:29;6.72;;;3.40;;
57810;SDS011;43640;47.550;7.590;2022-09-14T13:06:38;5.45;;;3.03;;
57810;SDS011;43640;47.550;7.590;2022-09-14T13:08:44;4.00;;;2.47;;
57810;SDS011;43640;47.550;7.590;2022-09-14T13:10:47;7.82;;;2.50;;
57810;SDS011;43640;47.550;7.590;2022-09-14T13:12:50;4.63;;;2.00;;
57810;SDS011;43640;47.550;7.590;2022-09-14T13:14:54;6.57;;;2.20;;
57810;SDS011;43640;47.550;7.590;2022-09-14T13:16:57;7.78;;;2.20;;
57810;SDS011;43640;47.550;7.590;2022-09-14T13:19:00;4.65;;;2.28;;
57810;SDS011;43640;47.550;7.590;2022-09-14T13:21:15;4.85;;;2.20;;
57810;SDS011;43640;47.550;7.590;2022-09-14T13:23:20;5.45;;;2.33;;
57810;SDS011;43640;47.550;7.590;2022-09-14T13:27:36;5.28;;;1.92;;
57810;SDS011;43640;47.550;7.590;2022-09-14T13:29:38;4.93;;;2.20;;
57810;SDS011;43640;47.550;7.590;2022-09-14T13:31:40;4.75;;;2.58;;
57810;SDS011;43640;47.550;7.590;2022-09-14T13:33:47;6.55;;;2.00;;
57810;SDS011;43640;47.550;7.590;2022-09-14T13:35:50;3.78;;;1.88;;
57810;SDS011;43640;47.550;7.590;2022-09-14T13:37:52;3.97;;;1.77;;
57810;SDS011;43640;47.550;7.590;2022-09-14T13:39:53;5.78;;;2.67;;
57810;SDS011;43640;47.550;7.590;2022-09-14T13:41:56;5.55;;;2.85;;
57810;SDS011;43640;47.550;7.590;2022-09-14T13:43:58;3.70;;;2.20;;
57810;SDS011;43640;47.550;7.590;2022-09-14T13:46:00;4.80;;;2.00;;
57810;SDS011;43640;47.550;7.590;2022-09-14T13:48:02;3.17;;;1.52;;
57810;SDS011;43640;47.550;7.590;2022-09-14T13:50:05;7.15;;;2.20;;
57810;SDS011;43640;47.550;7.590;2022-09-14T13:52:25;2.78;;;1.50;;
57810;SDS011;43640;47.550;7.590;2022-09-14T13:57:15;1.85;;;1.25;;
57810;SDS011;43640;47.550;7.590;2022-09-14T13:59:18;4.30;;;1.20;;
57810;SDS011;43640;47.550;7.590;2022-09-14T14:01:26;2.00;;;1.20;;
57810;SDS011;43640;47.550;7.590;2022-09-14T14:03:38;4.13;;;1.88;;
57810;SDS011;43640;47.550;7.590;2022-09-14T14:05:40;2.75;;;1.85;;
57810;SDS011;43640;47.550;7.590;2022-09-14T14:07:43;5.55;;;1.40;;